sensor_id;sensor_type;location;lat;lon;timestamp;pressure;altitude;pressure_sealevel;temperature;humidity
39613;BME280;25303;48.896;13.342;2024-03-06T00:05:15;92601.88;;;6.68;69.96
39613;BME280;25303;48.896;13.342;2024-03-06T00:15:20;92605.22;;;6.69;70.06
39613;BME280;25303;48.896;13.342;2024-03-06T00:25:23;92612.97;;;6.87;69.10
39613;BME280;25303;48.896;13.342;2024-03-06T00:35:27;92621.56;;;6.96;68.78
39613;BME280;25303;48.896;13.342;2024-03-06T00:45:31;92625.72;;;6.97;68.75
39613;BME280;25303;48.896;13.342;2024-03-06T00:55:35;92628.63;;;6.84;68.48
39613;BME280;25303;48.896;13.342;2024-03-06T01:05:38;92629.84;;;6.80;68.46
39613;BME280;25303;48.896;13.342;2024-03-06T01:15:43;92637.28;;;6.73;68.31
39613;BME280;25303;48.896;13.342;2024-03-06T01:25:45;92639.56;;;6.66;68.49
39613;BME280;25303;48.896;13.342;2024-03-06T01:35:50;92641.91;;;6.50;68.50
39613;BME280;25303;48.896;13.342;2024-03-06T01:45:53;92636.81;;;6.30;69.03
39613;BME280;25303;48.896;13.342;2024-03-06T01:55:58;92648.09;;;5.98;69.87
39613;BME280;25303;48.896;13.342;2024-03-06T02:06:02;92636.78;;;5.91;70.47
39613;BME280;25303;48.896;13.342;2024-03-06T02:16:07;92633.16;;;5.93;69.85
39613;BME280;25303;48.896;13.342;2024-03-06T02:26:12;92624.41;;;5.86;69.91
39613;BME280;25303;48.896;13.342;2024-03-06T02:36:15;92629.09;;;5.81;69.36
39613;BME280;25303;48.896;13.342;2024-03-06T02:46:19;92625.34;;;5.85;68.86
39613;BME280;25303;48.896;13.342;2024-03-06T02:56:22;92634.88;;;5.73;69.30
39613;BME280;25303;48.896;13.342;2024-03-06T03:06:27;92637.00;;;5.48;70.24
39613;BME280;25303;48.896;13.342;2024-03-06T03:16:31;92631.03;;;5.38;69.83
39613;BME280;25303;48.896;13.342;2024-03-06T03:26:35;92626.47;;;5.32;69.52
39613;BME280;25303;48.896;13.342;2024-03-06T03:36:41;92626.28;;;5.04;70.07
39613;BME280;25303;48.896;13.342;2024-03-06T03:46:46;92634.63;;;5.16;69.15
39613;BME280;25303;48.896;13.342;2024-03-06T03:56:49;92634.47;;;5.08;69.30
39613;BME280;25303;48.896;13.342;2024-03-06T04:06:53;92638.84;;;4.96;69.66
39613;BME280;25303;48.896;13.342;2024-03-06T04:16:57;92649.44;;;4.91;69.25
39613;BME280;25303;48.896;13.342;2024-03-06T04:27:02;92646.09;;;5.00;69.04
39613;BME280;25303;48.896;13.342;2024-03-06T04:37:05;92646.09;;;5.00;68.56
39613;BME280;25303;48.896;13.342;2024-03-06T04:47:09;92648.22;;;4.85;68.77
39613;BME280;25303;48.896;13.342;2024-03-06T04:57:12;92656.56;;;4.66;69.57
39613;BME280;25303;48.896;13.342;2024-03-06T05:07:17;92660.59;;;4.69;69.03
39613;BME280;25303;48.896;13.342;2024-03-06T05:17:37;92668.69;;;4.53;69.65
39613;BME280;25303;48.896;13.342;2024-03-06T05:27:59;92690.47;;;4.57;69.72
39613;BME280;25303;48.896;13.342;2024-03-06T05:38:19;92692.94;;;4.47;69.63
39613;BME280;25303;48.896;13.342;2024-03-06T05:48:42;92691.78;;;4.51;69.21
39613;BME280;25303;48.896;13.342;2024-03-06T05:59:03;92696.94;;;4.61;69.74
39613;BME280;25303;48.896;13.342;2024-03-06T06:09:10;92701.50;;;4.67;69.78
39613;BME280;25303;48.896;13.342;2024-03-06T06:19:18;92704.69;;;4.81;69.37
39613;BME280;25303;48.896;13.342;2024-03-06T06:29:22;92711.09;;;4.96;69.06
39613;BME280;25303;48.896;13.342;2024-03-06T06:39:25;92720.22;;;4.99;69.22
39613;BME280;25303;48.896;13.342;2024-03-06T06:49:30;92729.94;;;5.36;68.22
39613;BME280;25303;48.896;13.342;2024-03-06T06:59:32;92729.16;;;5.45;68.21
39613;BME280;25303;48.896;13.342;2024-03-06T07:09:37;92741.50;;;5.81;67.55
39613;BME280;25303;48.896;13.342;2024-03-06T07:19:40;92745.38;;;6.16;66.68
39613;BME280;25303;48.896;13.342;2024-03-06T07:29:45;92755.47;;;6.47;65.75
39613;BME280;25303;48.896;13.342;2024-03-06T07:39:48;92753.59;;;6.69;64.70
39613;BME280;25303;48.896;13.342;2024-03-06T07:49:56;92768.00;;;6.99;64.31
39613;BME280;25303;48.896;13.342;2024-03-06T07:59:59;92769.78;;;7.37;63.46
39613;BME280;25303;48.896;13.342;2024-03-06T08:10:04;92787.34;;;7.69;62.91
39613;BME280;25303;48.896;13.342;2024-03-06T08:20:08;92785.84;;;8.04;62.15
39613;BME280;25303;48.896;13.342;2024-03-06T08:30:13;92801.50;;;8.29;61.17
39613;BME280;25303;48.896;13.342;2024-03-06T08:40:16;92808.91;;;8.78;59.83
39613;BME280;25303;48.896;13.342;2024-03-06T08:50:21;92804.84;;;9.12;58.01
39613;BME280;25303;48.896;13.342;2024-03-06T09:00:24;92800.47;;;9.49;57.53
39613;BME280;25303;48.896;13.342;2024-03-06T09:10:29;92812.44;;;9.93;55.54
39613;BME280;25303;48.896;13.342;2024-03-06T09:20:32;92823.66;;;10.26;54.77
39613;BME280;25303;48.896;13.342;2024-03-06T09:30:37;92823.75;;;10.51;52.62
39613;BME280;25303;48.896;13.342;2024-03-06T09:40:40;92831.25;;;11.04;52.79
39613;BME280;25303;48.896;13.342;2024-03-06T09:50:46;92824.34;;;11.21;51.99
39613;BME280;25303;48.896;13.342;2024-03-06T10:00:51;92831.19;;;11.86;51.64
39613;BME280;25303;48.896;13.342;2024-03-06T10:10:57;92830.75;;;11.66;47.51
39613;BME280;25303;48.896;13.342;2024-03-06T10:21:00;92840.53;;;12.12;48.58
39613;BME280;25303;48.896;13.342;2024-03-06T10:31:05;92848.84;;;12.71;47.66
39613;BME280;25303;48.896;13.342;2024-03-06T10:41:09;92858.75;;;13.14;46.09
39613;BME280;25303;48.896;13.342;2024-03-06T10:51:18;92860.97;;;13.17;45.72
39613;BME280;25303;48.896;13.342;2024-03-06T11:01:23;92864.63;;;13.54;45.08
39613;BME280;25303;48.896;13.342;2024-03-06T11:11:28;92858.47;;;13.93;45.00
39613;BME280;25303;48.896;13.342;2024-03-06T11:21:31;92873.09;;;13.40;43.09
39613;BME280;25303;48.896;13.342;2024-03-06T11:31:36;92866.00;;;12.87;43.02
39613;BME280;25303;48.896;13.342;2024-03-06T11:41:47;92864.28;;;12.48;44.29
39613;BME280;25303;48.896;13.342;2024-03-06T11:51:52;92857.91;;;12.58;45.38
39613;BME280;25303;48.896;13.342;2024-03-06T12:01:57;92869.78;;;13.31;44.95
39613;BME280;25303;48.896;13.342;2024-03-06T12:12:06;92865.94;;;13.73;43.09
39613;BME280;25303;48.896;13.342;2024-03-06T12:22:10;92862.66;;;13.33;45.00
39613;BME280;25303;48.896;13.342;2024-03-06T12:32:18;92865.53;;;14.44;43.97
39613;BME280;25303;48.896;13.342;2024-03-06T12:42:22;92868.00;;;13.31;42.77
39613;BME280;25303;48.896;13.342;2024-03-06T12:52:27;92872.38;;;12.36;43.74
39613;BME280;25303;48.896;13.342;2024-03-06T13:02:30;92876.84;;;12.03;44.10
39613;BME280;25303;48.896;13.342;2024-03-06T13:12:34;92892.13;;;12.04;44.54
39613;BME280;25303;48.896;13.342;2024-03-06T13:22:37;92885.97;;;12.22;43.98
39613;BME280;25303;48.896;13.342;2024-03-06T13:32:42;92880.94;;;12.37;43.80
39613;BME280;25303;48.896;13.342;2024-03-06T13:42:47;92881.63;;;12.22;43.49
39613;BME280;25303;48.896;13.342;2024-03-06T13:52:51;92880.59;;;12.40;43.85
39613;BME280;25303;48.896;13.342;2024-03-06T14:02:55;92877.97;;;11.42;43.13
39613;BME280;25303;48.896;13.342;2024-03-06T14:12:59;92886.31;;;10.94;44.57
39613;BME280;25303;48.896;13.342;2024-03-06T14:23:03;92883.34;;;10.64;44.92
39613;BME280;25303;48.896;13.342;2024-03-06T14:33:07;92898.75;;;10.30;44.73
39613;BME280;25303;48.896;13.342;2024-03-06T14:43:10;92905.31;;;10.24;45.73
39613;BME280;25303;48.896;13.342;2024-03-06T14:53:15;92903.25;;;10.28;45.45
39613;BME280;25303;48.896;13.342;2024-03-06T15:03:19;92915.34;;;9.38;46.77
39613;BME280;25303;48.896;13.342;2024-03-06T15:13:24;92919.84;;;9.18;46.82
39613;BME280;25303;48.896;13.342;2024-03-06T15:23:28;92918.66;;;9.12;47.42
39613;BME280;25303;48.896;13.342;2024-03-06T15:33:34;92916.75;;;9.15;47.10
39613;BME280;25303;48.896;13.342;2024-03-06T15:43:37;92916.31;;;9.19;47.07
39613;BME280;25303;48.896;13.342;2024-03-06T15:53:42;92920.78;;;9.17;47.89
39613;BME280;25303;48.896;13.342;2024-03-06T16:03:45;92924.69;;;9.21;47.84
39613;BME280;25303;48.896;13.342;2024-03-06T16:13:49;92932.06;;;9.06;47.87
39613;BME280;25303;48.896;13.342;2024-03-06T16:23:52;92944.63;;;8.91;48.58
39613;BME280;25303;48.896;13.342;2024-03-06T16:33:58;92948.66;;;8.66;49.36
39613;BME280;25303;48.896;13.342;2024-03-06T16:44:01;92955.47;;;8.57;49.82
39613;BME280;25303;48.896;13.342;2024-03-06T16:54:07;92961.97;;;8.51;49.78
39613;BME280;25303;48.896;13.342;2024-03-06T17:04:10;92957.63;;;8.42;50.28
39613;BME280;25303;48.896;13.342;2024-03-06T17:14:14;92974.88;;;8.12;50.15
39613;BME280;25303;48.896;13.342;2024-03-06T17:24:17;92986.34;;;8.08;50.97
39613;BME280;25303;48.896;13.342;2024-03-06T17:34:22;92997.28;;;8.10;51.27
39613;BME280;25303;48.896;13.342;2024-03-06T17:44:25;92989.50;;;7.92;50.96
39613;BME280;25303;48.896;13.342;2024-03-06T17:54:32;93004.88;;;7.92;51.42
39613;BME280;25303;48.896;13.342;2024-03-06T18:04:36;93010.97;;;7.71;52.27
39613;BME280;25303;48.896;13.342;2024-03-06T18:14:40;93013.94;;;7.77;52.06
39613;BME280;25303;48.896;13.342;2024-03-06T18:24:43;93016.19;;;7.70;53.01
39613;BME280;25303;48.896;13.342;2024-03-06T18:34:48;93024.84;;;7.69;52.99
39613;BME280;25303;48.896;13.342;2024-03-06T18:44:52;93029.84;;;7.80;52.13
39613;BME280;25303;48.896;13.342;2024-03-06T18:54:57;93029.41;;;7.65;51.99
39613;BME280;25303;48.896;13.342;2024-03-06T19:05:00;93036.31;;;7.55;51.68
39613;BME280;25303;48.896;13.342;2024-03-06T19:15:05;93044.66;;;7.47;51.67
39613;BME280;25303;48.896;13.342;2024-03-06T19:25:09;93046.25;;;7.28;52.60
39613;BME280;25303;48.896;13.342;2024-03-06T19:35:13;93047.03;;;7.29;52.92
39613;BME280;25303;48.896;13.342;2024-03-06T19:45:17;93053.31;;;7.05;52.48
39613;BME280;25303;48.896;13.342;2024-03-06T19:55:21;93045.19;;;6.90;53.13
39613;BME280;25303;48.896;13.342;2024-03-06T20:05:24;93043.75;;;6.97;53.38
39613;BME280;25303;48.896;13.342;2024-03-06T20:15:31;93040.63;;;6.94;53.88
39613;BME280;25303;48.896;13.342;2024-03-06T20:25:34;93032.69;;;6.97;54.42
39613;BME280;25303;48.896;13.342;2024-03-06T20:35:41;93030.28;;;7.05;54.76
39613;BME280;25303;48.896;13.342;2024-03-06T20:45:44;93029.97;;;6.89;54.82
39613;BME280;25303;48.896;13.342;2024-03-06T20:55:50;93035.22;;;6.56;55.32
39613;BME280;25303;48.896;13.342;2024-03-06T21:05:54;93039.97;;;6.61;55.70
39613;BME280;25303;48.896;13.342;2024-03-06T21:15:58;93041.06;;;6.68;56.17
39613;BME280;25303;48.896;13.342;2024-03-06T21:26:01;93049.03;;;6.44;56.80
39613;BME280;25303;48.896;13.342;2024-03-06T21:36:07;93050.69;;;6.23;56.78
39613;BME280;25303;48.896;13.342;2024-03-06T21:46:10;93054.28;;;6.00;56.93
39613;BME280;25303;48.896;13.342;2024-03-06T21:56:15;93062.28;;;5.74;57.80
39613;BME280;25303;48.896;13.342;2024-03-06T22:06:18;93059.06;;;5.60;56.85
39613;BME280;25303;48.896;13.342;2024-03-06T22:16:23;93058.06;;;5.52;55.46
39613;BME280;25303;48.896;13.342;2024-03-06T22:26:26;93057.38;;;5.38;55.20
39613;BME280;25303;48.896;13.342;2024-03-06T22:36:32;93046.41;;;5.26;55.46
39613;BME280;25303;48.896;13.342;2024-03-06T22:46:35;93052.66;;;5.22;54.71
39613;BME280;25303;48.896;13.342;2024-03-06T22:56:53;93053.28;;;4.92;54.73
39613;BME280;25303;48.896;13.342;2024-03-06T23:06:56;93062.00;;;4.55;55.19
39613;BME280;25303;48.896;13.342;2024-03-06T23:17:00;93049.81;;;4.47;55.55
39613;BME280;25303;48.896;13.342;2024-03-06T23:27:03;93047.72;;;4.41;55.90
39613;BME280;25303;48.896;13.342;2024-03-06T23:37:08;93051.91;;;4.42;56.13
39613;BME280;25303;48.896;13.342;2024-03-06T23:47:11;93050.75;;;4.35;56.11
39613;BME280;25303;48.896;13.342;2024-03-06T23:57:17;93045.97;;;4.19;55.80
